Terminal Aerodrome Forecast
Issued by NWS

Home | Current Version | Previous Version | Graphics & Text | Print | Product List | Glossary On
Versions: 1 2 3 4 5 6 7 8 9 10 11 12 13 14 15
000
FTUS43 KUNR 230500
TAFGCC
TAF
KGCC 230520Z 2306/2406 24011KT P6SM VCTS SCT070CB OVC130
     FM230700 27008KT P6SM SCT130
     FM231500 30009KT P6SM SCT250
     FM231700 34011KT P6SM SCT250
     FM240400 27008KT P6SM SKC=

USA.gov is the U.S. government's official web portal to all federal, state and local government web resources and services.